Nearby METAR Reports

 

EDNY - Friedrichshafen, Germany
Distance from station: ONO 32km
aktuell: 26.08.2019 01:50
klar
klar
 Wind von NO
Wind: NO 7 km/h
Temperatur: 14°C
Taupunkt: 14°C
Luftfeuchte: 100%
Luftdruck: 1020 hPa
Clouds: klar
Visibility: 10 km
2019/08/25 23:50 EDNY 252350Z AUTO 05004KT 9999 // NCD 14/14 Q1020
LSZR - Rheineck/Altenrh, Switzerland
Distance from station: OSO 37km
aktuell: 26.08.2019 01:50
klar
klar
 Wind von SO
Wind: SO 4 km/h
Temperatur: 15°C
Taupunkt: 15°C
Luftfeuchte: 100%
Luftdruck: 1020 hPa
Zusammenfassung: klar
Visibility: greater than 10 km
2019/08/25 23:50 LSZR 252350Z AUTO 13002KT CAVOK 15/15 Q1020
LSMD - Dubendorf, Switzerland
Distance from station: SW 40km
aktuell: 26.08.2019 01:50
klar
klar
 Wind von calm
Wind: Windstill
Temperatur: 14°C
Taupunkt: 13°C
Luftfeuchte: 94%
Luftdruck: 1020 hPa
Clouds: klar
Visibility: 10 km
2019/08/25 23:50 LSMD 252350Z AUTO 00000KT 9999NDV NCD 14/13 Q1020 RMK
 
LSZH - Zurich-Kloten (a, Switzerland
Distance from station: WSW 44km
aktuell: 26.08.2019 01:50
klar
klar
 Wind von varies
Wind: varies 2 km/h
Temperatur: 14°C
Taupunkt: 13°C
Luftfeuchte: 94%
Luftdruck: 1020 hPa
Zusammenfassung: klar
Visibility: greater than 10 km
2019/08/25 23:50 LSZH 252350Z VRB01KT CAVOK 14/13 Q1020 NOSIG
LOIH - Hohenems-Dornbir, Austria
Distance from station: OSO 51km
aktuell: 31.10.2016 17:00
NOT Current
geschlossene Wolkendecke
geschlossene Wolkendecke
 Wind von calm
Wind: Windstill
Temperatur: 10°C
Taupunkt: 9°C
Luftfeuchte: 94%
Luftdruck: 1026 hPa
Clouds: geschlossene Wolkendecke
Cloud details: geschlossene Wolkendecke 305 m
2016/10/31 16:00 LOIH 311600Z 00000KT 10KM OVC010ST 10/09 Q1026 RMK OVC
LSME - Emmen, Switzerland
Distance from station: SW 82km
aktuell: 26.08.2019 01:50
klar
klar
 Wind von calm
Wind: Windstill
Temperatur: 14°C
Taupunkt: 12°C
Luftfeuchte: 88%
Luftdruck: 1020 hPa
Clouds: klar
Visibility: 10 km
2019/08/25 23:50 LSME 252350Z AUTO 00000KT 9999NDV NCD 14/12 Q1020 RMK
 
LSZC - Buochs, Switzerland
Distance from station: SW 89km
aktuell: 26.08.2019 01:50
klar
klar
 Wind von WSW
Wind: WSW 7 km/h
Temperatur: 16°C
Taupunkt: 13°C
Luftfeuchte: 83%
Luftdruck: 1020 hPa
Zusammenfassung: klar
Visibility: greater than 10 km
2019/08/25 23:50 LSZC 252350Z AUTO 25004KT 230V300 CAVOK 16/13 Q1020
ETHL - Laupheim (ger-Ar, Germany
Distance from station: NO 92km
aktuell: 26.08.2019 01:20
Few Clouds
Few Clouds
 Wind von calm
Wind: Windstill
Temperatur: 18°C
Taupunkt: 15°C
Luftfeuchte: 83%
Luftdruck: 1020 hPa
Clouds: Few Clouds
Visibility: 10 km
Cloud details: Few Clouds 9144 m
2019/08/25 23:20 ETHL 252320Z 00000KT 9999 FEW300 18/15 Q1020 BLU+
EDJA - Memmingen Allgau, Germany
Distance from station: ONO 95km
aktuell: 25.08.2019 23:50
NOT Current
klar
klar
 Wind von SO
Wind: SO 6 km/h
Temperatur: 16°C
Taupunkt: 15°C
Luftfeuchte: 94%
Luftdruck: 1021 hPa
Zusammenfassung: klar
Visibility: greater than 10 km
2019/08/25 21:50 EDJA 252150Z 14003KT CAVOK 16/15 Q1021
 
LSMA - Alpnach, Switzerland
Distance from station: SW 95km
aktuell: 26.08.2019 01:50
klar
klar
 Wind von SSW
Wind: SSW 6 km/h
Temperatur: 16°C
Taupunkt: 13°C
Luftfeuchte: 83%
Luftdruck: 1020 hPa
Clouds: klar
Visibility: 10 km
2019/08/25 23:50 LSMA 252350Z AUTO 20003KT 170V250 9999NDV NCD 16/13 Q1020 RMK